Time;durP1;ratioP1;P1;durP2;ratioP2;P2;SDS_P1;SDS_P2;PMS_P1;PMS_P2;Temp;Humidity;BMP_temperature;BMP_pressure;BME280_temperature;BME280_humidity;BME280_pressure;Samples;Min_cycle;Max_cycle;Signal;HPM_P1;HPM_P2
2021/09/18 00:02:14;;;;;;;12.57;9.65;;;14.20;99.90;;;;;;5053325;28;20576;-60
2021/09/18 00:04:39;;;;;;;14.20;10.25;;;14.30;99.90;;;;;;5051774;28;20390;-59
2021/09/18 00:07:05;;;;;;;13.73;9.65;;;14.30;99.90;;;;;;5040126;28;20103;-59
2021/09/18 00:09:31;;;;;;;12.35;9.07;;;14.30;99.90;;;;;;5052620;28;20029;-60
2021/09/18 00:11:56;;;;;;;14.07;9.35;;;14.30;99.90;;;;;;5052829;28;20020;-60
2021/09/18 00:14:22;;;;;;;12.60;8.88;;;14.30;99.90;;;;;;5052676;28;20064;-61
2021/09/18 00:16:48;;;;;;;13.98;10.15;;;14.20;99.90;;;;;;5052787;28;20037;-61
2021/09/18 00:19:15;;;;;;;17.42;10.18;;;14.20;99.90;;;;;;5053133;28;20040;-60
2021/09/18 00:21:40;;;;;;;13.57;9.30;;;14.10;99.90;;;;;;5052102;28;20037;-59
2021/09/18 00:24:06;;;;;;;14.30;10.15;;;14.10;99.90;;;;;;5053466;28;20032;-61
2021/09/18 00:26:32;;;;;;;18.48;9.32;;;14.00;99.90;;;;;;5052129;28;20487;-61
2021/09/18 00:28:59;;;;;;;10.85;8.95;;;14.00;99.90;;;;;;5052577;28;20202;-59
2021/09/18 00:31:26;;;;;;;13.02;9.45;;;14.00;99.90;;;;;;5051990;28;20061;-60
2021/09/18 00:33:51;;;;;;;15.75;10.27;;;14.00;99.90;;;;;;5051459;28;20036;-60
2021/09/18 00:36:17;;;;;;;15.15;9.90;;;14.00;99.90;;;;;;5051479;28;20037;-61
2021/09/18 00:38:44;;;;;;;17.77;10.40;;;14.00;99.90;;;;;;5052964;28;20040;-61
2021/09/18 00:41:10;;;;;;;12.27;9.20;;;14.00;99.90;;;;;;5051714;28;20530;-59
2021/09/18 00:43:36;;;;;;;13.52;9.88;;;14.00;99.90;;;;;;5052632;28;20025;-60
2021/09/18 00:46:02;;;;;;;16.33;10.15;;;14.00;99.90;;;;;;5052026;28;20479;-60
2021/09/18 00:48:28;;;;;;;16.83;9.93;;;14.00;99.90;;;;;;5035168;28;20468;-62
2021/09/18 00:50:54;;;;;;;18.88;10.15;;;14.00;99.90;;;;;;5045391;28;20032;-58
2021/09/18 00:53:20;;;;;;;13.57;9.90;;;13.90;99.90;;;;;;5052271;28;20554;-61
2021/09/18 00:55:46;;;;;;;13.57;8.93;;;13.90;99.90;;;;;;5051656;28;20112;-61
2021/09/18 00:58:11;;;;;;;13.20;8.73;;;13.80;99.90;;;;;;5052541;28;20047;-59
2021/09/18 01:00:38;;;;;;;15.10;9.20;;;13.80;99.90;;;;;;5051384;28;20063;-60
2021/09/18 01:03:03;;;;;;;12.98;9.18;;;13.70;99.90;;;;;;5050621;28;20056;-60
2021/09/18 01:05:32;;;;;;;15.02;9.27;;;13.70;99.90;;;;;;5029809;28;20475;-60
2021/09/18 01:07:59;;;;;;;15.80;9.25;;;13.60;99.90;;;;;;5048030;28;20033;-62
2021/09/18 01:10:25;;;;;;;15.27;9.80;;;13.60;99.90;;;;;;5042791;28;20108;-61
2021/09/18 01:13:07;;;;;;;12.45;9.60;;;13.60;99.90;;;;;;5046763;28;20325;-60
2021/09/18 01:15:36;;;;;;;13.07;9.20;;;13.60;99.90;;;;;;5051201;28;20032;-61
2021/09/18 01:18:03;;;;;;;12.93;9.48;;;13.60;99.90;;;;;;5052123;28;20033;-59
2021/09/18 01:20:30;;;;;;;15.60;10.10;;;13.60;99.90;;;;;;5050977;28;20029;-60
2021/09/18 01:22:58;;;;;;;16.38;10.32;;;13.60;99.90;;;;;;5051669;28;20020;-60
2021/09/18 01:25:25;;;;;;;14.15;9.55;;;13.60;99.90;;;;;;5051019;28;20037;-62
2021/09/18 01:27:51;;;;;;;15.32;10.20;;;13.60;99.90;;;;;;5051534;28;20112;-59
2021/09/18 01:30:22;;;;;;;15.90;10.38;;;13.70;99.90;;;;;;5050903;28;20075;-60
2021/09/18 01:32:48;;;;;;;15.18;10.35;;;13.70;99.90;;;;;;5051296;28;20061;-60
2021/09/18 01:35:14;;;;;;;15.45;9.90;;;13.80;99.90;;;;;;5050968;28;20071;-60
2021/09/18 01:37:41;;;;;;;16.02;10.40;;;13.80;99.90;;;;;;5051709;28;20029;-60
2021/09/18 01:40:08;;;;;;;13.15;9.57;;;13.80;99.90;;;;;;5050863;28;20056;-59
2021/09/18 01:42:34;;;;;;;17.45;10.50;;;13.80;99.90;;;;;;5051325;28;20044;-60
2021/09/18 01:45:00;;;;;;;13.68;9.75;;;13.80;99.90;;;;;;5050854;28;20037;-59
2021/09/18 01:47:41;;;;;;;16.10;10.98;;;13.80;99.90;;;;;;5051216;28;20098;-60
2021/09/18 01:50:24;;;;;;;18.88;11.05;;;13.80;99.90;;;;;;5050766;28;20142;-62
2021/09/18 01:52:52;;;;;;;15.30;10.95;;;13.80;99.90;;;;;;5051158;28;20053;-61
2021/09/18 01:55:17;;;;;;;16.42;10.27;;;13.80;99.90;;;;;;5050556;28;20041;-59
2021/09/18 01:57:46;;;;;;;15.48;10.93;;;13.80;99.90;;;;;;5049968;28;20395;-61
2021/09/18 02:00:13;;;;;;;16.67;10.50;;;13.80;99.90;;;;;;5036325;28;20063;-60
2021/09/18 02:02:39;;;;;;;13.90;10.70;;;13.80;99.90;;;;;;5040211;28;20476;-60
2021/09/18 02:05:06;;;;;;;19.13;11.57;;;13.90;99.90;;;;;;5044759;28;20037;-60
2021/09/18 02:07:32;;;;;;;14.85;10.05;;;13.80;99.90;;;;;;5040033;28;20021;-60
2021/09/18 02:09:58;;;;;;;16.25;11.63;;;13.80;99.90;;;;;;5036846;28;20037;-62
2021/09/18 02:12:23;;;;;;;19.42;11.60;;;13.80;99.90;;;;;;5043470;28;20053;-61
2021/09/18 02:14:49;;;;;;;15.73;11.73;;;13.80;99.90;;;;;;5044179;28;20036;-59
2021/09/18 02:17:15;;;;;;;15.77;11.40;;;13.70;99.90;;;;;;5049857;28;20101;-61
2021/09/18 02:19:40;;;;;;;23.75;11.93;;;13.70;99.90;;;;;;5051154;28;20498;-62
2021/09/18 02:22:06;;;;;;;25.95;11.85;;;13.80;99.90;;;;;;5050137;28;20158;-63
2021/09/18 02:24:32;;;;;;;15.93;11.63;;;13.80;99.90;;;;;;5051000;28;20060;-60
2021/09/18 02:26:57;;;;;;;15.90;11.90;;;13.70;99.90;;;;;;5050076;28;20032;-60
2021/09/18 02:29:23;;;;;;;16.60;11.98;;;13.70;99.90;;;;;;5050677;28;20041;-59
2021/09/18 02:31:48;;;;;;;15.65;11.38;;;13.70;99.90;;;;;;5050195;28;20399;-60
2021/09/18 02:34:14;;;;;;;19.50;11.93;;;13.60;99.90;;;;;;5050733;28;20029;-61
2021/09/18 02:36:40;;;;;;;14.77;11.70;;;13.60;99.90;;;;;;5049961;28;20036;-59
2021/09/18 02:39:05;;;;;;;15.35;12.30;;;13.60;99.90;;;;;;5050732;28;20032;-61
2021/09/18 02:41:31;;;;;;;16.42;12.68;;;13.50;99.90;;;;;;5050203;28;20021;-60
2021/09/18 02:43:57;;;;;;;16.33;12.43;;;13.50;99.90;;;;;;5050917;28;20025;-60
2021/09/18 02:46:22;;;;;;;18.13;12.88;;;13.50;99.90;;;;;;5050140;28;20025;-60
2021/09/18 02:48:48;;;;;;;20.10;12.52;;;13.40;99.90;;;;;;5051138;28;20029;-60
2021/09/18 02:51:14;;;;;;;16.38;12.23;;;13.50;99.90;;;;;;5049701;28;20021;-60
2021/09/18 02:53:39;;;;;;;17.92;12.57;;;13.40;99.90;;;;;;5050765;28;20053;-59
2021/09/18 02:56:05;;;;;;;19.40;13.45;;;13.40;99.90;;;;;;5035693;28;20029;-59
2021/09/18 02:58:30;;;;;;;20.88;13.52;;;13.40;99.90;;;;;;5051105;28;20094;-59
2021/09/18 03:00:56;;;;;;;21.15;13.07;;;13.30;99.90;;;;;;5050128;28;20479;-60
2021/09/18 03:03:22;;;;;;;18.52;13.15;;;13.30;99.90;;;;;;5050195;28;20410;-59
2021/09/18 03:05:47;;;;;;;18.20;13.90;;;13.30;99.90;;;;;;5050117;28;20049;-61
2021/09/18 03:08:13;;;;;;;19.85;13.60;;;13.30;99.90;;;;;;5050297;28;20055;-60
2021/09/18 03:10:39;;;;;;;20.52;13.57;;;13.30;99.90;;;;;;5050042;28;20052;-59
2021/09/18 03:13:04;;;;;;;19.65;13.88;;;13.30;99.90;;;;;;5052932;28;20037;-62
2021/09/18 03:15:30;;;;;;;19.83;13.55;;;13.30;99.90;;;;;;5054219;28;20115;-60
2021/09/18 03:17:57;;;;;;;21.58;14.23;;;13.20;99.90;;;;;;5044073;28;20075;-61
2021/09/18 03:20:23;;;;;;;16.73;13.32;;;13.20;99.90;;;;;;5050049;28;20037;-61
2021/09/18 03:22:49;;;;;;;19.10;13.43;;;13.20;99.90;;;;;;5053487;28;20040;-60
2021/09/18 03:25:15;;;;;;;22.60;14.57;;;13.20;99.90;;;;;;5054335;28;20432;-61
2021/09/18 03:27:40;;;;;;;20.00;14.13;;;13.30;99.90;;;;;;5053125;28;20025;-60
2021/09/18 03:30:07;;;;;;;18.50;14.18;;;13.30;99.90;;;;;;5053367;28;20414;-61
2021/09/18 03:32:33;;;;;;;23.40;15.02;;;13.30;99.90;;;;;;5053014;28;20025;-59
2021/09/18 03:34:59;;;;;;;23.35;15.48;;;13.30;99.90;;;;;;5053809;28;20094;-60
2021/09/18 03:37:24;;;;;;;20.85;14.68;;;13.30;99.90;;;;;;5052931;28;20442;-61
2021/09/18 03:39:50;;;;;;;25.55;16.58;;;13.30;99.90;;;;;;5054043;28;20453;-60
2021/09/18 03:42:16;;;;;;;20.77;14.70;;;13.30;99.90;;;;;;5052935;28;20032;-60
2021/09/18 03:44:42;;;;;;;25.15;15.98;;;13.30;99.90;;;;;;5053741;28;20043;-60
2021/09/18 03:47:07;;;;;;;22.77;16.38;;;13.20;99.90;;;;;;5053275;28;20036;-60
2021/09/18 03:49:33;;;;;;;27.17;16.38;;;13.30;99.90;;;;;;5053834;28;20028;-60
2021/09/18 03:51:59;;;;;;;25.95;17.33;;;13.20;99.90;;;;;;5053065;28;20037;-63
2021/09/18 03:54:24;;;;;;;22.45;15.60;;;13.30;99.90;;;;;;5053717;28;20083;-61
2021/09/18 03:56:50;;;;;;;25.55;15.98;;;13.30;99.90;;;;;;5053032;28;20040;-61
2021/09/18 03:59:17;;;;;;;23.83;15.38;;;13.30;99.90;;;;;;5053529;28;20517;-62
2021/09/18 04:01:42;;;;;;;24.58;17.23;;;13.30;99.90;;;;;;5052658;28;20017;-60
2021/09/18 04:04:08;;;;;;;28.58;17.73;;;13.30;99.90;;;;;;5053456;28;20605;-59
2021/09/18 04:06:34;;;;;;;27.23;17.48;;;13.30;99.90;;;;;;5052707;28;20068;-60
2021/09/18 04:08:59;;;;;;;23.90;17.55;;;13.40;99.90;;;;;;5053711;28;20509;-61
2021/09/18 04:11:25;;;;;;;26.88;18.15;;;13.30;99.90;;;;;;5052750;28;20036;-63
2021/09/18 04:13:51;;;;;;;24.95;18.65;;;13.30;99.90;;;;;;5052921;28;20403;-61
2021/09/18 04:16:20;;;;;;;27.42;19.25;;;13.40;99.90;;;;;;5052650;28;20588;-61
2021/09/18 04:18:47;;;;;;;27.60;18.13;;;13.40;99.90;;;;;;5053168;28;20040;-62
2021/09/18 04:21:13;;;;;;;25.70;18.13;;;13.30;99.90;;;;;;5052573;28;20064;-59
2021/09/18 04:23:38;;;;;;;26.33;17.92;;;13.30;99.90;;;;;;5052351;28;20021;-62
2021/09/18 04:26:04;;;;;;;26.75;18.17;;;13.30;99.90;;;;;;5051127;28;20141;-59
2021/09/18 04:28:30;;;;;;;25.10;17.60;;;13.30;99.90;;;;;;5052602;28;20035;-61
2021/09/18 04:30:56;;;;;;;29.58;18.98;;;13.40;99.90;;;;;;5052790;28;20061;-61
2021/09/18 04:33:21;;;;;;;29.08;18.60;;;13.30;99.90;;;;;;5052135;28;20438;-59
2021/09/18 04:35:47;;;;;;;24.27;17.92;;;13.30;99.90;;;;;;5038912;28;20081;-60
2021/09/18 04:38:13;;;;;;;30.08;18.98;;;13.20;99.90;;;;;;5051763;28;20064;-59
2021/09/18 04:40:39;;;;;;;25.85;19.08;;;13.20;99.90;;;;;;5052715;28;20060;-60
2021/09/18 04:43:05;;;;;;;27.00;18.90;;;13.20;99.90;;;;;;5051963;28;20039;-61
2021/09/18 04:45:30;;;;;;;28.60;18.65;;;13.20;99.90;;;;;;5052640;28;20036;-60
2021/09/18 04:47:56;;;;;;;28.83;19.92;;;13.10;99.90;;;;;;5051597;28;20108;-60
2021/09/18 04:50:22;;;;;;;29.65;20.10;;;13.10;99.90;;;;;;5052774;28;20108;-60
2021/09/18 04:52:48;;;;;;;26.00;18.52;;;13.00;99.90;;;;;;5037334;28;20444;-61
2021/09/18 04:55:13;;;;;;;26.90;18.65;;;13.00;99.90;;;;;;5052451;28;20032;-61
2021/09/18 04:57:39;;;;;;;31.00;19.08;;;13.00;99.90;;;;;;5051322;28;20115;-60
2021/09/18 05:00:06;;;;;;;27.83;19.02;;;13.00;99.90;;;;;;5052650;28;20488;-59
2021/09/18 05:02:31;;;;;;;26.33;18.50;;;12.90;99.90;;;;;;5051521;28;20025;-60
2021/09/18 05:04:57;;;;;;;26.10;19.48;;;12.90;99.90;;;;;;5052372;28;20059;-59
2021/09/18 05:07:23;;;;;;;28.65;18.10;;;12.80;99.90;;;;;;5040877;28;20056;-59
2021/09/18 05:09:48;;;;;;;34.33;19.40;;;12.80;99.90;;;;;;5048906;28;20052;-59
2021/09/18 05:12:14;;;;;;;26.83;18.13;;;12.80;99.90;;;;;;5051320;28;20382;-58
2021/09/18 05:14:40;;;;;;;30.83;19.02;;;12.80;99.90;;;;;;5051890;28;20097;-60
2021/09/18 05:17:06;;;;;;;27.58;18.73;;;12.80;99.90;;;;;;5051212;28;20095;-59
2021/09/18 05:19:31;;;;;;;26.88;18.67;;;12.70;99.90;;;;;;5050768;28;20028;-59
2021/09/18 05:21:57;;;;;;;29.58;19.60;;;12.60;99.90;;;;;;5050925;28;20025;-61
2021/09/18 05:24:25;;;;;;;29.60;19.80;;;12.70;99.90;;;;;;5051783;28;20031;-60
2021/09/18 05:26:51;;;;;;;28.63;18.90;;;12.60;99.90;;;;;;5051399;28;20032;-60
2021/09/18 05:29:16;;;;;;;26.70;18.95;;;12.70;99.90;;;;;;5051427;28;20387;-59
2021/09/18 05:31:42;;;;;;;28.90;19.58;;;12.70;99.90;;;;;;5050035;28;20037;-60
2021/09/18 05:34:09;;;;;;;31.42;19.88;;;12.70;99.90;;;;;;5066147;28;20037;-62
2021/09/18 05:36:35;;;;;;;28.23;19.65;;;12.60;99.90;;;;;;5050679;28;20043;-61
2021/09/18 05:39:02;;;;;;;36.97;21.15;;;12.60;99.90;;;;;;5051184;28;20522;-59
2021/09/18 05:41:27;;;;;;;29.83;19.60;;;12.70;99.90;;;;;;5044387;28;20315;-63
2021/09/18 05:43:53;;;;;;;30.45;19.80;;;12.60;99.90;;;;;;5044405;28;20416;-60
2021/09/18 05:46:19;;;;;;;29.70;20.38;;;12.50;99.90;;;;;;5037289;28;20047;-59
2021/09/18 05:48:44;;;;;;;31.02;19.80;;;12.50;99.90;;;;;;5049419;28;20033;-60
2021/09/18 05:51:10;;;;;;;32.28;20.33;;;12.50;99.90;;;;;;5031766;28;20383;-59
2021/09/18 05:53:36;;;;;;;30.92;19.05;;;12.40;99.90;;;;;;5030593;28;20124;-60
2021/09/18 05:56:03;;;;;;;34.47;19.95;;;12.30;99.90;;;;;;5031347;28;20091;-62
2021/09/18 05:58:28;;;;;;;32.70;20.60;;;12.30;99.90;;;;;;5030465;28;20033;-60
2021/09/18 06:00:54;;;;;;;30.70;19.25;;;12.30;99.90;;;;;;5040553;28;20052;-61
2021/09/18 06:03:20;;;;;;;33.55;19.52;;;12.30;99.90;;;;;;5050536;28;20114;-61
2021/09/18 06:05:46;;;;;;;33.65;19.50;;;12.20;99.90;;;;;;5031341;28;20037;-62
2021/09/18 06:08:12;;;;;;;28.73;18.67;;;12.20;99.90;;;;;;5031069;28;20025;-61
2021/09/18 06:10:38;;;;;;;25.38;17.98;;;12.20;99.90;;;;;;5030968;28;20108;-59
2021/09/18 06:13:03;;;;;;;29.15;18.88;;;12.20;99.90;;;;;;5030422;28;20021;-63
2021/09/18 06:15:29;;;;;;;28.00;18.65;;;12.20;99.90;;;;;;5048109;28;20032;-63
2021/09/18 06:17:55;;;;;;;25.63;18.27;;;12.20;99.90;;;;;;5050141;28;20041;-61
2021/09/18 06:20:21;;;;;;;28.40;19.48;;;12.10;99.90;;;;;;5049487;28;20029;-61
2021/09/18 06:22:46;;;;;;;31.85;20.33;;;12.20;99.90;;;;;;5037788;28;20116;-60
2021/09/18 06:25:12;;;;;;;33.03;19.40;;;12.20;99.90;;;;;;5050761;28;20029;-61
2021/09/18 06:27:43;;;;;;;28.88;20.48;;;12.20;99.90;;;;;;5049758;28;20373;-61
2021/09/18 06:30:10;;;;;;;32.72;20.40;;;12.20;99.90;;;;;;5050905;28;20048;-58
2021/09/18 06:32:36;;;;;;;32.58;21.35;;;12.30;99.90;;;;;;5065231;28;20036;-61
2021/09/18 06:35:02;;;;;;;32.72;21.92;;;12.30;99.90;;;;;;5050959;28;20372;-60
2021/09/18 06:37:28;;;;;;;34.67;22.25;;;12.40;99.90;;;;;;5050010;28;20037;-60
2021/09/18 06:39:54;;;;;;;33.08;22.13;;;12.60;99.90;;;;;;5050719;28;20043;-60
2021/09/18 06:42:19;;;;;;;37.00;24.05;;;12.60;99.90;;;;;;5050283;28;20033;-62
2021/09/18 06:44:45;;;;;;;41.50;24.88;;;12.70;99.90;;;;;;5050904;28;20027;-59
2021/09/18 06:47:11;;;;;;;36.22;24.88;;;12.80;99.90;;;;;;5046946;28;20366;-59
2021/09/18 06:49:37;;;;;;;39.95;26.17;;;12.90;99.90;;;;;;5052640;28;20135;-59
2021/09/18 06:52:04;;;;;;;37.47;25.08;;;13.10;99.90;;;;;;5054225;28;20801;-61
2021/09/18 06:54:29;;;;;;;46.15;26.02;;;13.20;99.90;;;;;;5054305;28;20465;-59
2021/09/18 06:56:55;;;;;;;44.13;26.33;;;13.40;99.90;;;;;;5054683;28;20064;-61
2021/09/18 06:59:21;;;;;;;48.70;27.10;;;13.40;99.90;;;;;;5053723;28;20490;-61
2021/09/18 07:01:46;;;;;;;55.97;30.63;;;13.50;99.90;;;;;;5054487;28;20483;-60
2021/09/18 07:04:12;;;;;;;67.57;32.83;;;13.60;99.90;;;;;;5053951;28;20021;-61
2021/09/18 07:06:38;;;;;;;91.30;40.05;;;13.80;99.90;;;;;;5053967;28;20036;-61
2021/09/18 07:09:03;;;;;;;103.93;42.80;;;13.90;99.90;;;;;;5053820;28;20037;-61
2021/09/18 07:11:29;;;;;;;91.68;39.20;;;14.10;99.90;;;;;;5054215;28;20067;-61
2021/09/18 07:13:55;;;;;;;105.45;41.15;;;14.20;99.90;;;;;;5053374;28;20029;-61
2021/09/18 07:16:21;;;;;;;126.07;46.72;;;14.20;99.90;;;;;;5054263;28;20387;-62
2021/09/18 07:18:47;;;;;;;114.97;45.97;;;14.20;99.90;;;;;;5053182;28;20037;-60
2021/09/18 07:21:13;;;;;;;120.18;46.58;;;14.20;99.90;;;;;;5054315;28;20036;-60
2021/09/18 07:23:38;;;;;;;102.32;44.80;;;14.30;99.90;;;;;;5052974;28;20387;-62
2021/09/18 07:26:04;;;;;;;116.85;48.25;;;14.40;99.90;;;;;;5054094;28;20032;-61
2021/09/18 07:28:31;;;;;;;113.63;45.88;;;14.50;99.90;;;;;;5053301;28;20029;-61
2021/09/18 07:30:58;;;;;;;111.50;46.38;;;14.60;99.90;;;;;;5053856;28;20039;-60
2021/09/18 07:33:24;;;;;;;106.82;44.97;;;14.70;99.90;;;;;;5053593;28;20036;-61
2021/09/18 07:35:49;;;;;;;102.32;44.58;;;14.80;99.90;;;;;;5053657;28;20029;-61
2021/09/18 07:38:15;;;;;;;105.43;48.47;;;14.80;99.90;;;;;;5052889;28;20055;-60
2021/09/18 07:40:42;;;;;;;92.55;43.15;;;14.90;99.90;;;;;;5051663;28;20615;-61
2021/09/18 07:43:08;;;;;;;101.63;45.25;;;15.00;99.90;;;;;;5040090;28;20029;-60
2021/09/18 07:45:34;;;;;;;106.22;47.30;;;15.10;99.90;;;;;;5053888;28;20036;-62
2021/09/18 07:47:59;;;;;;;109.35;50.35;;;15.30;99.90;;;;;;5052839;28;20028;-61
2021/09/18 07:50:25;;;;;;;113.00;52.58;;;15.60;99.90;;;;;;5053723;28;20025;-61
2021/09/18 07:52:51;;;;;;;111.18;50.35;;;15.90;99.90;;;;;;5052707;28;20039;-59
2021/09/18 07:55:18;;;;;;;110.28;50.50;;;16.10;99.90;;;;;;5053001;28;20028;-59
2021/09/18 07:57:43;;;;;;;105.07;49.92;;;16.20;99.90;;;;;;5052186;28;20404;-60
2021/09/18 08:00:09;;;;;;;94.57;46.35;;;16.20;99.90;;;;;;5053381;28;20094;-60
2021/09/18 08:02:35;;;;;;;93.05;45.60;;;16.20;99.90;;;;;;5052606;28;20086;-59
2021/09/18 08:05:04;;;;;;;107.55;47.78;;;16.20;99.90;;;;;;5039449;28;20024;-60
2021/09/18 08:07:30;;;;;;;101.15;47.75;;;16.20;99.90;;;;;;5052885;28;20037;-59
2021/09/18 08:09:56;;;;;;;108.28;49.60;;;16.30;99.90;;;;;;5053090;28;20083;-63
2021/09/18 08:12:23;;;;;;;106.97;51.28;;;16.30;99.90;;;;;;5053204;28;20075;-59
2021/09/18 08:14:50;;;;;;;104.53;50.60;;;16.40;99.90;;;;;;5052219;28;20056;-60
2021/09/18 08:17:16;;;;;;;97.93;49.20;;;16.60;99.90;;;;;;5052739;28;20099;-61
2021/09/18 08:19:41;;;;;;;91.22;47.75;;;16.80;99.90;;;;;;5052451;28;20107;-58
2021/09/18 08:22:07;;;;;;;90.18;46.13;;;16.90;99.90;;;;;;5052853;28;20425;-59
2021/09/18 08:24:33;;;;;;;83.10;44.13;;;17.20;99.90;;;;;;5052454;28;20479;-61
2021/09/18 08:26:58;;;;;;;81.60;44.08;;;17.40;99.90;;;;;;5052811;28;20120;-63
2021/09/18 08:29:24;;;;;;;77.13;40.72;;;17.60;99.90;;;;;;5052030;28;20053;-60
2021/09/18 08:31:50;;;;;;;69.45;38.35;;;17.80;99.90;;;;;;5053124;28;20028;-63
2021/09/18 08:34:15;;;;;;;62.83;35.85;;;18.20;99.90;;;;;;5051854;28;20025;-60
2021/09/18 08:36:41;;;;;;;56.95;33.63;;;18.70;99.90;;;;;;5042802;28;20045;-61
2021/09/18 08:39:07;;;;;;;50.28;31.88;;;19.00;99.90;;;;;;5047943;28;20565;-64
2021/09/18 08:41:33;;;;;;;53.63;32.00;;;19.00;99.90;;;;;;5052657;28;20025;-61
2021/09/18 08:43:59;;;;;;;47.38;29.25;;;19.10;99.90;;;;;;5051501;28;20099;-61
2021/09/18 08:46:26;;;;;;;50.33;29.60;;;19.30;99.90;;;;;;5046688;28;20082;-60
2021/09/18 08:48:53;;;;;;;42.28;25.58;;;19.70;99.90;;;;;;5031743;28;20476;-61
2021/09/18 08:51:19;;;;;;;37.58;23.85;;;19.90;99.90;;;;;;5036991;28;20068;-60
2021/09/18 08:53:45;;;;;;;37.35;22.75;;;20.10;99.90;;;;;;5042405;28;20049;-61
2021/09/18 08:56:15;;;;;;;39.22;23.38;;;20.30;99.90;;;;;;5034678;28;20040;-60
2021/09/18 08:58:41;;;;;;;32.05;21.02;;;20.50;99.90;;;;;;5051535;28;20033;-61
2021/09/18 09:01:06;;;;;;;35.05;20.08;;;20.60;99.90;;;;;;5038125;28;20139;-60
2021/09/18 09:03:35;;;;;;;30.45;20.33;;;20.80;99.90;;;;;;5051341;28;20052;-61
2021/09/18 09:06:03;;;;;;;34.83;21.92;;;20.70;99.90;;;;;;5052124;28;20072;-60
2021/09/18 09:08:29;;;;;;;37.50;21.88;;;20.80;99.90;;;;;;5051596;28;20028;-60
2021/09/18 09:10:55;;;;;;;31.88;20.02;;;21.00;99.90;;;;;;5050893;28;20040;-62
2021/09/18 09:13:23;;;;;;;33.33;20.88;;;21.10;99.90;;;;;;5050142;28;20398;-60
2021/09/18 09:16:04;;;;;;;33.58;21.42;;;21.40;99.90;;;;;;5051920;28;20029;-62
2021/09/18 09:18:36;;;;;;;37.47;21.50;;;21.60;99.90;;;;;;5051338;28;20040;-61
2021/09/18 09:21:29;;;;;;;36.92;21.83;;;21.70;99.90;;;;;;5051911;28;20426;-59
2021/09/18 09:24:08;;;;;;;33.17;21.33;;;21.70;99.90;;;;;;5050849;28;20033;-61
2021/09/18 09:26:35;;;;;;;36.40;20.83;;;21.90;99.90;;;;;;5051113;28;20093;-62
2021/09/18 09:29:02;;;;;;;31.77;20.00;;;22.00;99.90;;;;;;5033168;28;20050;-59
2021/09/18 09:31:37;;;;;;;32.95;19.75;;;22.10;99.90;;;;;;5008715;28;20720;-62
2021/09/18 09:34:18;;;;;;;30.90;18.33;;;22.20;99.90;;;;;;5008177;28;20111;-60
2021/09/18 09:36:46;;;;;;;21.98;15.02;;;22.30;99.90;;;;;;5008408;28;20487;-61
2021/09/18 09:39:18;;;;;;;24.27;15.02;;;22.40;99.90;;;;;;5007831;28;20026;-60
2021/09/18 09:41:50;;;;;;;19.55;12.73;;;22.50;99.90;;;;;;5008690;28;20041;-61
2021/09/18 09:44:18;;;;;;;20.90;11.20;;;22.50;99.90;;;;;;5007839;28;20026;-61
2021/09/18 09:46:58;;;;;;;16.67;10.85;;;22.50;99.90;;;;;;5008483;28;20503;-60
2021/09/18 09:49:39;;;;;;;12.38;8.90;;;22.40;99.90;;;;;;5007626;28;20396;-60
2021/09/18 09:52:28;;;;;;;16.08;10.13;;;22.50;99.90;;;;;;5008395;28;20026;-59
2021/09/18 09:54:59;;;;;;;17.75;11.63;;;22.50;99.90;;;;;;5007582;28;20499;-59
2021/09/18 09:57:25;;;;;;;14.73;9.38;;;22.50;99.90;;;;;;5008086;28;20034;-62
2021/09/18 09:59:58;;;;;;;12.95;8.57;;;22.60;99.90;;;;;;5007321;28;20030;-59
2021/09/18 10:02:24;;;;;;;16.27;9.05;;;22.70;99.90;;;;;;5008099;28;20022;-60
2021/09/18 10:04:51;;;;;;;12.15;8.68;;;22.70;99.90;;;;;;5007766;28;20393;-59
2021/09/18 10:07:17;;;;;;;13.07;7.85;;;22.80;99.90;;;;;;5007052;28;20029;-60
2021/09/18 10:09:44;;;;;;;14.55;7.40;;;22.90;99.90;;;;;;5007442;28;20100;-61
2021/09/18 10:12:14;;;;;;;9.70;6.82;;;22.90;99.90;;;;;;5008264;28;20030;-59
2021/09/18 10:14:41;;;;;;;12.80;7.68;;;23.00;99.90;;;;;;4996670;28;20033;-59
2021/09/18 10:17:07;;;;;;;13.55;7.47;;;23.00;99.90;;;;;;4988468;28;20390;-62
2021/09/18 10:25:23;;;;;;;12.27;7.00;;;23.20;99.90;;;;;;4988088;28;20037;-60
2021/09/18 10:28:13;;;;;;;10.57;4.85;;;23.20;99.90;;;;;;4988226;28;20162;-61
2021/09/18 10:30:43;;;;;;;10.15;4.78;;;23.30;99.90;;;;;;4999461;28;20544;-59
2021/09/18 10:33:41;;;;;;;10.75;4.43;;;23.40;99.90;;;;;;5007580;28;20022;-60
2021/09/18 10:36:13;;;;;;;9.38;4.30;;;23.30;99.90;;;;;;5006926;28;20026;-61
2021/09/18 10:39:05;;;;;;;10.65;4.15;;;23.40;99.90;;;;;;5006684;28;20026;-60
2021/09/18 10:42:00;;;;;;;6.55;4.28;;;23.30;99.90;;;;;;5002099;28;20081;-62
2021/09/18 10:45:03;;;;;;;8.35;4.10;;;23.50;99.90;;;;;;4991536;28;20038;-59
2021/09/18 10:47:38;;;;;;;6.80;3.67;;;23.60;99.90;;;;;;4953114;29;20051;-61
2021/09/18 10:50:21;;;;;;;7.68;3.65;;;23.60;99.90;;;;;;4987990;28;20048;-60
2021/09/18 10:53:03;;;;;;;9.38;3.55;;;23.60;99.90;;;;;;4992679;28;20046;-61
2021/09/18 10:55:30;;;;;;;6.78;3.67;;;23.60;99.90;;;;;;4993481;28;20374;-61
2021/09/18 10:57:55;;;;;;;6.85;3.47;;;23.60;99.90;;;;;;4993969;28;20034;-60
2021/09/18 11:00:24;;;;;;;4.72;3.30;;;23.60;99.90;;;;;;4992093;28;20045;-61
2021/09/18 11:02:54;;;;;;;9.45;4.32;;;23.70;99.90;;;;;;4993772;28;20035;-61
2021/09/18 11:05:22;;;;;;;6.22;3.67;;;23.70;99.90;;;;;;4993261;28;20037;-60
2021/09/18 11:07:53;;;;;;;9.25;3.78;;;23.80;99.90;;;;;;4994171;28;20179;-61
2021/09/18 11:10:21;;;;;;;6.53;3.90;;;23.80;99.90;;;;;;4992913;28;20489;-60
2021/09/18 11:13:09;;;;;;;6.75;4.38;;;23.70;99.90;;;;;;4993942;28;20432;-60
2021/09/18 11:15:53;;;;;;;9.18;5.00;;;23.80;99.90;;;;;;4992607;28;20386;-60
2021/09/18 11:18:30;;;;;;;6.60;4.72;;;23.70;99.90;;;;;;4992547;28;20400;-61
2021/09/18 11:21:20;;;;;;;14.40;6.75;;;23.80;99.90;;;;;;4992959;28;20462;-59
2021/09/18 11:23:49;;;;;;;12.75;6.13;;;23.70;99.90;;;;;;4993771;28;20034;-59
2021/09/18 11:26:27;;;;;;;9.98;5.15;;;23.80;99.90;;;;;;4993323;28;20065;-60
2021/09/18 11:28:53;;;;;;;8.18;4.50;;;23.90;99.90;;;;;;4993199;28;20034;-61
2021/09/18 11:31:18;;;;;;;9.82;4.20;;;23.90;99.90;;;;;;4993063;28;20068;-61
2021/09/18 11:33:49;;;;;;;7.88;4.13;;;24.10;99.90;;;;;;4993727;28;20113;-60
2021/09/18 11:36:14;;;;;;;7.88;4.30;;;24.10;99.90;;;;;;4992693;28;20137;-60
2021/09/18 11:38:42;;;;;;;7.97;4.65;;;24.20;99.90;;;;;;4993310;28;20122;-59
2021/09/18 11:41:13;;;;;;;8.85;4.18;;;24.20;99.90;;;;;;4992256;28;20024;-62
2021/09/18 11:43:41;;;;;;;8.82;4.82;;;24.40;99.90;;;;;;4992978;28;20085;-60
2021/09/18 11:46:08;;;;;;;8.75;5.55;;;24.40;99.90;;;;;;4991921;28;20558;-59
2021/09/18 11:48:34;;;;;;;7.93;5.15;;;24.30;99.90;;;;;;4993030;28;20048;-60
2021/09/18 11:51:02;;;;;;;9.88;4.90;;;24.40;99.90;;;;;;4992135;28;20480;-60
2021/09/18 11:53:29;;;;;;;9.10;4.72;;;24.30;99.90;;;;;;4992261;28;20116;-61
2021/09/18 11:55:56;;;;;;;11.35;4.93;;;24.30;99.90;;;;;;4992203;28;20030;-61
2021/09/18 11:58:21;;;;;;;8.15;4.35;;;24.40;99.90;;;;;;4993115;28;20081;-62
2021/09/18 12:00:47;;;;;;;9.93;4.10;;;24.40;99.90;;;;;;4992254;28;20034;-61
2021/09/18 12:03:18;;;;;;;7.88;3.90;;;24.40;99.90;;;;;;4992620;28;20029;-60
2021/09/18 12:05:48;;;;;;;7.20;3.60;;;24.50;99.90;;;;;;4992218;28;20473;-60
2021/09/18 12:08:14;;;;;;;6.97;4.10;;;24.50;99.90;;;;;;4992635;28;20034;-59
2021/09/18 12:10:40;;;;;;;6.13;3.80;;;24.50;99.90;;;;;;4992172;28;20468;-60
2021/09/18 12:13:08;;;;;;;10.95;4.15;;;24.60;99.90;;;;;;4992729;28;20030;-61
2021/09/18 12:15:40;;;;;;;5.95;4.00;;;24.70;99.90;;;;;;4991723;28;20483;-62
2021/09/18 12:18:19;;;;;;;7.85;6.05;;;24.80;99.90;;;;;;4992787;28;20033;-59
2021/09/18 12:20:45;;;;;;;8.68;4.57;;;24.80;99.90;;;;;;4991696;28;20038;-62
2021/09/18 12:23:11;;;;;;;6.40;4.07;;;24.80;99.90;;;;;;4992142;28;20026;-60
2021/09/18 12:25:37;;;;;;;6.43;4.10;;;24.90;99.90;;;;;;4991036;28;20177;-61
2021/09/18 12:28:04;;;;;;;6.93;3.90;;;24.80;99.90;;;;;;4992745;28;20076;-59
2021/09/18 12:30:42;;;;;;;7.32;3.83;;;24.90;99.90;;;;;;4990932;28;20046;-60
2021/09/18 12:33:16;;;;;;;10.15;3.55;;;24.90;99.90;;;;;;4992872;28;20045;-61
2021/09/18 12:35:44;;;;;;;7.85;3.75;;;24.90;99.90;;;;;;4991522;28;20030;-60
2021/09/18 12:38:12;;;;;;;6.28;3.67;;;24.80;99.90;;;;;;4992450;28;20038;-60
2021/09/18 12:40:49;;;;;;;6.78;3.97;;;24.80;99.90;;;;;;4991132;28;20026;-60